createdAt,value
2019-05-23T17:48:58.634Z,988.80
2019-05-23T17:49:58.594Z,988.86
2019-05-23T17:50:58.552Z,988.76
2019-05-23T17:53:26.176Z,988.85
2019-05-23T17:54:26.158Z,988.86
2019-05-23T17:55:27.233Z,988.84
2019-05-23T17:56:27.229Z,988.88
2019-05-23T17:57:27.219Z,988.86
2019-05-23T17:58:27.212Z,988.89
2019-05-23T17:59:28.203Z,988.88
2019-05-23T18:00:27.195Z,988.92
2019-05-23T18:01:27.188Z,988.92
2019-05-23T18:02:27.176Z,988.94
2019-05-23T18:03:27.186Z,988.93
2019-05-23T18:04:27.169Z,989.02
2019-05-23T18:05:27.182Z,989.01
2019-05-23T18:06:27.146Z,988.98
2019-05-23T18:07:27.147Z,988.89
2019-05-23T18:08:27.147Z,988.99
2019-05-23T18:09:27.140Z,989.04
2019-05-23T18:10:43.226Z,989.02
2019-05-23T18:11:29.120Z,989.02
2019-05-23T18:12:27.131Z,989.00
2019-05-23T18:13:27.112Z,989.03
2019-05-23T18:14:27.096Z,988.96
2019-05-23T18:15:27.085Z,989.05
2019-05-23T18:16:27.075Z,989.00
2019-05-23T18:17:27.067Z,988.97
2019-05-23T18:18:27.076Z,989.01
2019-05-23T18:19:27.054Z,989.08
2019-05-23T18:20:27.041Z,989.04
2019-05-23T18:21:27.051Z,989.03
2019-05-23T18:22:27.053Z,989.05
2019-05-23T18:23:27.022Z,989.12
2019-05-23T18:24:27.024Z,989.06
2019-05-23T18:25:27.008Z,989.00
2019-05-23T18:26:26.998Z,989.04
2019-05-23T18:33:16.503Z,989.01
2019-05-23T18:34:16.500Z,988.98
2019-05-23T18:35:17.588Z,988.98
2019-05-23T18:36:17.638Z,989.03
2019-05-23T18:37:17.552Z,989.09
2019-05-23T18:38:17.547Z,989.05
2019-05-23T18:39:17.535Z,989.08
2019-05-23T18:40:17.553Z,989.04
2019-05-23T18:41:17.526Z,989.06
2019-05-23T18:42:17.538Z,989.02
2019-05-23T18:43:17.526Z,989.09
2019-05-23T18:44:17.499Z,989.01
2019-05-23T18:45:17.489Z,989.00
2019-05-23T18:46:17.488Z,989.08
2019-05-23T18:47:17.481Z,989.01
2019-05-23T18:48:17.481Z,989.08
2019-05-23T18:49:17.456Z,989.06
2019-05-23T18:50:18.455Z,989.04
2019-05-23T18:51:17.468Z,989.07
2019-05-23T18:52:17.447Z,989.09
2019-05-23T18:53:17.442Z,989.06
2019-05-23T18:54:17.425Z,989.04
2019-05-23T18:55:17.420Z,989.10
2019-05-23T18:56:17.413Z,989.05
2019-05-23T18:57:17.401Z,989.05
2019-05-23T18:58:19.539Z,989.08
2019-05-23T18:59:18.391Z,989.13
2019-05-23T19:00:17.381Z,989.08
2019-05-23T19:01:17.374Z,989.11
2019-05-23T19:02:17.884Z,989.06
2019-05-23T19:03:17.458Z,989.12
2019-05-23T19:05:43.877Z,989.06
2019-05-23T19:06:45.164Z,989.01
2019-05-23T19:07:46.063Z,989.09
2019-05-23T19:08:48.665Z,989.04
2019-05-23T19:09:45.760Z,989.08
2019-05-23T19:12:18.595Z,989.03
2019-05-23T19:14:17.990Z,989.06
2019-05-23T19:18:14.643Z,989.11
2019-05-23T19:22:30.378Z,989.13
2019-05-23T19:25:49.108Z,989.19
2019-05-23T19:28:47.231Z,989.18
2019-05-23T19:31:36.842Z,989.24
2019-05-23T19:32:52.609Z,989.17
2019-05-23T19:35:36.235Z,989.17
2019-05-23T19:36:37.319Z,989.19
2019-05-23T19:38:16.378Z,989.12
2019-05-23T19:39:49.079Z,989.15
2019-05-23T19:41:03.462Z,989.13
2019-05-23T19:42:16.079Z,989.13
2019-05-23T19:43:16.997Z,989.14
2019-05-23T19:44:20.284Z,989.16
2019-05-23T19:48:04.494Z,989.19
2019-05-23T19:49:03.590Z,989.15
2019-05-23T19:50:03.925Z,989.13
2019-05-23T19:51:09.223Z,989.18
2019-05-23T19:52:06.962Z,989.15
2019-05-23T19:56:17.784Z,989.12
2019-05-23T19:59:16.449Z,989.16
2019-05-23T20:00:18.894Z,989.13
2019-05-23T20:02:39.310Z,989.13
2019-05-23T20:05:19.379Z,989.15
2019-05-23T20:07:49.998Z,989.18
2019-05-23T20:11:31.294Z,989.20
2019-05-23T20:15:19.979Z,989.21
2019-05-23T20:16:20.938Z,989.20
2019-05-23T20:17:20.933Z,989.19
2019-05-23T20:18:22.098Z,989.23
2019-05-23T20:19:23.820Z,989.17
2019-05-23T20:20:21.820Z,989.18
2019-05-23T20:21:21.088Z,989.17
2019-05-23T20:22:21.929Z,989.16
2019-05-23T20:23:42.630Z,989.21
2019-05-23T20:24:48.811Z,989.20
2019-05-23T20:25:22.819Z,989.20
2019-05-23T20:26:20.945Z,989.17
2019-05-23T20:27:20.885Z,989.23
2019-05-23T20:28:24.039Z,989.16
2019-05-23T20:29:23.976Z,989.14
2019-05-23T20:30:21.908Z,989.21
2019-05-23T20:31:20.841Z,989.16
2019-05-23T20:32:20.895Z,989.20
2019-05-23T20:33:20.881Z,989.23
2019-05-23T20:34:21.815Z,989.26
2019-05-23T20:35:21.313Z,989.23
2019-05-23T20:36:20.876Z,989.17
2019-05-23T20:37:22.239Z,989.17
2019-05-23T20:38:24.323Z,989.21
2019-05-23T20:39:20.822Z,989.19
2019-05-23T20:40:21.104Z,989.20
2019-05-23T20:41:24.572Z,989.22
2019-05-23T20:42:20.785Z,989.22
2019-05-23T20:43:25.397Z,989.30
2019-05-23T20:44:21.589Z,989.26
2019-05-23T20:45:20.738Z,989.25
2019-05-23T20:46:20.730Z,989.31
2019-05-23T20:47:20.815Z,989.18
2019-05-23T20:48:20.769Z,989.30
2019-05-23T20:49:22.814Z,989.14
2019-05-23T20:50:21.772Z,989.19
2019-05-23T20:51:20.707Z,989.20
2019-05-23T20:52:21.315Z,989.21
2019-05-23T20:53:21.652Z,989.25
2019-05-23T20:54:20.722Z,989.13
2019-05-23T20:55:20.730Z,989.21
2019-05-23T20:56:20.637Z,989.20
2019-05-23T20:57:20.702Z,989.15
2019-05-23T20:58:24.867Z,989.18
2019-05-23T20:59:25.821Z,989.20
